createdAt,value
2019-05-07T00:00:34.702Z,0.00
2019-05-07T00:01:34.627Z,0.00
2019-05-07T00:02:34.559Z,0.00
2019-05-07T00:03:34.394Z,0.00
2019-05-07T00:04:34.289Z,0.00
2019-05-07T00:05:34.187Z,0.00
2019-05-07T00:06:34.082Z,0.00
2019-05-07T00:07:33.978Z,0.00
2019-05-07T00:08:33.873Z,0.00
2019-05-07T00:09:33.771Z,0.00
2019-05-07T00:10:33.665Z,0.00
2019-05-07T00:11:33.562Z,0.00
2019-05-07T00:12:33.463Z,0.00
2019-05-07T00:13:33.464Z,0.00
2019-05-07T00:14:34.617Z,0.00
2019-05-07T00:15:33.147Z,0.00
2019-05-07T00:16:33.043Z,0.00
2019-05-07T00:17:32.942Z,0.00
2019-05-07T00:18:32.837Z,0.00
2019-05-07T00:19:32.733Z,0.00
2019-05-07T00:20:32.873Z,0.00
2019-05-07T00:21:32.710Z,0.00
2019-05-07T00:22:32.728Z,0.00
2019-05-07T00:23:32.604Z,0.00
2019-05-07T00:24:33.133Z,0.00
2019-05-07T00:25:32.833Z,0.00
2019-05-07T00:26:32.095Z,0.00
2019-05-07T00:27:32.160Z,0.00
2019-05-07T00:28:32.420Z,0.00
2019-05-07T00:29:32.118Z,0.00
2019-05-07T00:30:33.142Z,0.00
2019-05-07T00:31:32.589Z,0.00
2019-05-07T00:32:32.785Z,0.00
2019-05-07T00:33:32.304Z,0.00
2019-05-07T00:34:32.805Z,0.00
2019-05-07T00:35:32.388Z,0.00
2019-05-07T00:36:32.349Z,0.00
2019-05-07T00:37:32.300Z,0.00
2019-05-07T00:38:31.952Z,0.00
2019-05-07T00:39:32.672Z,0.00
2019-05-07T00:40:32.109Z,0.00
2019-05-07T00:41:31.894Z,0.00
2019-05-07T00:42:32.167Z,0.00
2019-05-07T00:43:32.110Z,0.00
2019-05-07T00:44:30.133Z,0.00
2019-05-07T00:45:30.029Z,0.00
2019-05-07T00:46:32.015Z,0.00
2019-05-07T00:47:29.822Z,0.00
2019-05-07T00:48:29.716Z,0.00
2019-05-07T00:49:29.611Z,0.00
2019-05-07T00:50:29.508Z,0.00
2019-05-07T00:51:29.402Z,0.00
2019-05-07T00:52:29.296Z,0.00
2019-05-07T00:53:29.191Z,0.00
2019-05-07T00:54:29.091Z,0.00
2019-05-07T00:55:28.989Z,0.00
2019-05-07T00:56:28.878Z,0.00
2019-05-07T00:57:28.776Z,0.00
2019-05-07T00:58:28.676Z,0.00
2019-05-07T00:59:28.567Z,0.00
2019-05-07T01:00:28.490Z,0.00
2019-05-07T01:01:28.355Z,0.00
2019-05-07T01:02:28.250Z,0.00
2019-05-07T01:03:28.147Z,0.00
2019-05-07T01:04:28.043Z,0.00
2019-05-07T01:05:27.937Z,0.00
2019-05-07T01:06:27.831Z,0.00
2019-05-07T01:07:27.727Z,0.00
2019-05-07T01:08:27.622Z,0.00
2019-05-07T01:09:27.520Z,0.00
2019-05-07T01:10:27.418Z,0.00
2019-05-07T01:11:27.309Z,0.00
2019-05-07T01:12:27.201Z,0.00
2019-05-07T01:13:27.096Z,0.00
2019-05-07T01:14:26.992Z,0.00
2019-05-07T01:15:31.222Z,0.00
2019-05-07T01:16:26.786Z,0.00
2019-05-07T01:17:26.678Z,0.00
2019-05-07T01:18:26.574Z,0.00
2019-05-07T01:19:26.529Z,0.00
2019-05-07T01:20:26.364Z,0.00
2019-05-07T01:21:26.258Z,0.00
2019-05-07T01:22:26.152Z,0.00
2019-05-07T01:23:26.049Z,0.00
2019-05-07T01:24:25.947Z,0.00
2019-05-07T01:25:25.837Z,0.00
2019-05-07T01:26:25.738Z,0.00
2019-05-07T01:27:25.627Z,0.00
2019-05-07T01:28:25.525Z,0.00
2019-05-07T01:29:25.418Z,0.00
2019-05-07T01:30:25.314Z,0.00
2019-05-07T01:31:25.208Z,0.00
2019-05-07T01:32:25.103Z,0.00
2019-05-07T01:33:24.999Z,0.00
2019-05-07T01:34:24.901Z,0.00
2019-05-07T01:35:24.787Z,0.00
2019-05-07T01:36:24.684Z,0.00
2019-05-07T01:37:24.579Z,0.00
2019-05-07T01:38:24.511Z,0.00
2019-05-07T01:39:24.446Z,0.00
2019-05-07T01:40:24.262Z,0.00
2019-05-07T01:41:24.158Z,0.00
2019-05-07T01:42:24.054Z,0.00
2019-05-07T01:43:23.947Z,0.00
2019-05-07T01:44:23.843Z,0.00
2019-05-07T01:45:24.852Z,0.00
2019-05-07T01:46:24.763Z,0.00
2019-05-07T01:47:23.836Z,0.00
2019-05-07T01:48:23.423Z,0.00
2019-05-07T01:49:24.030Z,0.00
2019-05-07T01:50:23.213Z,0.00
2019-05-07T01:51:23.108Z,0.00
2019-05-07T01:52:23.002Z,0.00
2019-05-07T01:53:22.989Z,0.00
2019-05-07T01:54:23.818Z,0.00
2019-05-07T01:55:22.748Z,0.00
2019-05-07T01:56:22.949Z,0.00
2019-05-07T01:57:23.129Z,0.00
2019-05-07T01:58:22.416Z,0.00
2019-05-07T01:59:22.599Z,0.00
2019-05-07T02:00:22.515Z,0.00
2019-05-07T02:01:22.221Z,0.00
2019-05-07T02:02:22.897Z,0.00
2019-05-07T02:03:23.066Z,0.00
2019-05-07T02:04:22.411Z,0.00
2019-05-07T02:05:22.895Z,0.00
2019-05-07T02:06:22.065Z,0.00
2019-05-07T02:07:22.689Z,0.00
2019-05-07T02:08:22.139Z,0.00
2019-05-07T02:09:22.527Z,0.00
2019-05-07T02:10:22.723Z,0.00
2019-05-07T02:11:21.862Z,0.00
2019-05-07T02:12:22.187Z,0.00
2019-05-07T02:13:22.303Z,0.00
2019-05-07T02:14:21.893Z,0.00
2019-05-07T02:15:22.514Z,0.00
2019-05-07T02:16:21.819Z,0.00
2019-05-07T02:17:22.670Z,0.00
2019-05-07T02:18:21.766Z,0.00
2019-05-07T02:19:21.951Z,0.00
2019-05-07T02:20:20.072Z,0.00
2019-05-07T02:21:21.938Z,0.00
2019-05-07T02:22:19.856Z,0.00
2019-05-07T02:23:19.754Z,0.00
2019-05-07T02:24:19.650Z,0.00
2019-05-07T02:25:19.545Z,0.00
2019-05-07T02:26:19.441Z,0.00
2019-05-07T02:27:19.338Z,0.00
2019-05-07T02:28:19.239Z,0.00
2019-05-07T02:29:19.130Z,0.00
2019-05-07T02:30:19.028Z,0.00
2019-05-07T02:31:18.919Z,0.00
2019-05-07T02:32:18.831Z,0.00
2019-05-07T02:33:18.708Z,0.00
2019-05-07T02:34:18.604Z,0.00
2019-05-07T02:35:18.500Z,0.00
2019-05-07T02:36:18.447Z,0.00
2019-05-07T02:37:18.362Z,0.00
2019-05-07T02:38:18.188Z,0.00
2019-05-07T02:39:18.082Z,0.00
2019-05-07T02:40:17.977Z,0.00
2019-05-07T02:41:17.873Z,0.00
2019-05-07T02:42:17.773Z,0.00
2019-05-07T02:43:17.667Z,0.00
2019-05-07T02:44:17.559Z,0.00
2019-05-07T02:45:17.452Z,0.00
2019-05-07T02:46:26.378Z,0.00
2019-05-07T02:47:17.247Z,0.00
2019-05-07T02:48:17.138Z,0.00
2019-05-07T02:49:17.034Z,0.00
2019-05-07T02:50:16.929Z,0.00
2019-05-07T02:51:16.825Z,0.00
2019-05-07T02:52:16.721Z,0.00
2019-05-07T02:53:18.177Z,0.00
2019-05-07T02:54:16.513Z,0.00
2019-05-07T02:55:16.407Z,0.00
2019-05-07T02:56:16.355Z,0.00
2019-05-07T02:57:17.071Z,0.00
2019-05-07T02:58:16.098Z,0.00
2019-05-07T02:59:15.988Z,0.00
2019-05-07T03:00:19.267Z,0.00
2019-05-07T03:01:15.778Z,0.00
2019-05-07T03:02:15.674Z,0.00
2019-05-07T03:03:15.569Z,0.00
2019-05-07T03:04:15.465Z,0.00
2019-05-07T03:05:15.358Z,0.00
2019-05-07T03:06:15.255Z,0.00
2019-05-07T03:07:15.152Z,0.00
2019-05-07T03:08:15.050Z,0.00
2019-05-07T03:09:14.942Z,0.00
2019-05-07T03:10:14.836Z,0.00
2019-05-07T03:11:14.734Z,0.00
2019-05-07T03:12:14.633Z,0.00
2019-05-07T03:13:14.523Z,0.00
2019-05-07T03:14:14.438Z,0.00
2019-05-07T03:15:14.382Z,0.00
2019-05-07T03:16:14.209Z,0.00
2019-05-07T03:17:14.104Z,0.00
2019-05-07T03:18:16.839Z,0.00
2019-05-07T03:19:13.902Z,0.00
2019-05-07T03:20:13.984Z,0.00
2019-05-07T03:21:13.696Z,0.00
2019-05-07T03:22:14.079Z,0.00
2019-05-07T03:23:13.527Z,0.00
2019-05-07T03:24:14.031Z,0.00
2019-05-07T03:25:13.590Z,0.00
2019-05-07T03:26:13.631Z,0.00
2019-05-07T03:27:14.094Z,0.00
2019-05-07T03:28:13.637Z,0.00
2019-05-07T03:29:13.156Z,0.00
2019-05-07T03:30:16.705Z,0.00
2019-05-07T03:31:16.789Z,0.00
2019-05-07T03:32:16.147Z,5.63
2019-05-07T03:33:16.072Z,5.63
2019-05-07T03:34:16.436Z,5.63
2019-05-07T03:35:16.118Z,5.63
2019-05-07T03:36:16.488Z,5.63
2019-05-07T03:37:13.615Z,5.63
2019-05-07T03:38:13.172Z,5.63
2019-05-07T03:39:14.282Z,5.63
2019-05-07T03:40:14.253Z,5.63
2019-05-07T03:41:12.897Z,11.25
2019-05-07T03:42:13.079Z,11.25
2019-05-07T03:43:13.889Z,11.25
2019-05-07T03:44:13.285Z,11.25
2019-05-07T03:45:13.762Z,11.25
2019-05-07T03:46:13.766Z,11.25
2019-05-07T03:47:13.488Z,16.88
2019-05-07T03:48:13.633Z,16.88
2019-05-07T03:49:13.571Z,16.88
2019-05-07T03:50:14.182Z,16.88
2019-05-07T03:51:12.922Z,16.88
2019-05-07T03:52:13.527Z,16.88
2019-05-07T03:53:13.871Z,16.88
2019-05-07T03:54:10.272Z,22.50
2019-05-07T03:55:10.127Z,22.50
2019-05-07T03:56:12.894Z,22.50
2019-05-07T03:57:11.542Z,28.13
2019-05-07T03:58:09.808Z,28.13
2019-05-07T03:59:12.859Z,28.13
2019-05-07T04:00:12.868Z,28.13
2019-05-07T04:01:09.500Z,28.13
2019-05-07T04:02:09.394Z,28.13
2019-05-07T04:03:09.295Z,33.75
2019-05-07T04:04:09.184Z,39.38
2019-05-07T04:05:09.085Z,45.00
2019-05-07T04:06:08.972Z,45.00
2019-05-07T04:07:08.868Z,45.00
2019-05-07T04:08:08.764Z,45.00
2019-05-07T04:09:08.662Z,45.00
2019-05-07T04:10:10.221Z,45.00
2019-05-07T04:11:08.455Z,50.63
2019-05-07T04:12:08.351Z,56.25
2019-05-07T04:13:08.322Z,56.25
2019-05-07T04:14:08.140Z,56.25
2019-05-07T04:15:08.035Z,56.25
2019-05-07T04:16:07.930Z,56.25
2019-05-07T04:17:21.397Z,56.25
2019-05-07T04:18:07.717Z,56.25
2019-05-07T04:19:07.618Z,56.25
2019-05-07T04:20:07.512Z,61.88
2019-05-07T04:21:07.407Z,61.88
2019-05-07T04:22:07.303Z,61.88
2019-05-07T04:23:07.197Z,61.88
2019-05-07T04:24:07.091Z,67.50
2019-05-07T04:25:06.989Z,73.13
2019-05-07T04:26:06.883Z,78.75
2019-05-07T04:27:06.781Z,90.00
2019-05-07T04:28:06.675Z,101.25
2019-05-07T04:29:06.609Z,101.25
2019-05-07T04:30:06.467Z,106.88
2019-05-07T04:31:06.361Z,112.50
2019-05-07T04:32:06.287Z,112.50
2019-05-07T04:33:06.230Z,112.50
2019-05-07T04:34:06.050Z,106.88
2019-05-07T04:35:05.944Z,106.88
2019-05-07T04:36:05.844Z,101.25
2019-05-07T04:37:05.738Z,101.25
2019-05-07T04:38:06.826Z,106.88
2019-05-07T04:39:05.532Z,112.50
2019-05-07T04:40:05.431Z,112.50
2019-05-07T04:41:05.321Z,118.13
2019-05-07T04:42:05.217Z,129.38
2019-05-07T04:43:05.115Z,140.63
2019-05-07T04:44:05.026Z,157.50
2019-05-07T04:45:04.902Z,174.38
2019-05-07T04:46:04.800Z,180.00
2019-05-07T04:47:04.694Z,191.25
2019-05-07T04:48:04.592Z,191.25
2019-05-07T04:49:04.496Z,196.88
2019-05-07T04:50:04.385Z,202.50
2019-05-07T04:51:04.279Z,202.50
2019-05-07T04:52:04.279Z,202.50
2019-05-07T04:53:04.073Z,202.50
2019-05-07T04:54:04.010Z,202.50
2019-05-07T04:55:04.340Z,208.13
2019-05-07T04:56:03.760Z,208.13
2019-05-07T04:57:03.938Z,225.00
2019-05-07T04:58:08.275Z,219.38
2019-05-07T04:59:03.819Z,202.50
2019-05-07T05:00:03.686Z,185.63
2019-05-07T05:01:03.406Z,196.88
2019-05-07T05:02:04.118Z,174.38
2019-05-07T05:03:03.402Z,185.63
2019-05-07T05:04:21.081Z,191.25
2019-05-07T05:05:03.468Z,180.00
2019-05-07T05:06:02.855Z,168.75
2019-05-07T05:07:02.780Z,135.00
2019-05-07T05:08:03.872Z,151.88
2019-05-07T05:09:03.043Z,146.25
2019-05-07T05:10:02.813Z,151.88
2019-05-07T05:11:03.433Z,146.25
2019-05-07T05:12:02.788Z,151.88
2019-05-07T05:13:03.190Z,146.25
2019-05-07T05:14:02.783Z,140.63
2019-05-07T05:15:02.247Z,140.63
2019-05-07T05:16:02.008Z,140.63
2019-05-07T05:17:02.045Z,151.88
2019-05-07T05:18:02.669Z,135.00
2019-05-07T05:19:02.474Z,140.63
2019-05-07T05:20:03.530Z,135.00
2019-05-07T05:21:02.797Z,185.63
2019-05-07T05:22:01.999Z,168.75
2019-05-07T05:23:02.497Z,219.38
2019-05-07T05:24:01.840Z,168.75
2019-05-07T05:25:02.501Z,185.63
2019-05-07T05:26:01.933Z,219.38
2019-05-07T05:27:02.452Z,275.63
2019-05-07T05:28:02.044Z,270.00
2019-05-07T05:29:02.286Z,236.25
2019-05-07T05:30:00.230Z,230.63
2019-05-07T05:31:00.148Z,253.13
2019-05-07T05:32:02.210Z,258.75
2019-05-07T05:33:02.180Z,247.50
2019-05-07T05:34:02.066Z,298.13
2019-05-07T05:34:59.707Z,534.38
2019-05-07T05:35:59.604Z,618.75
2019-05-07T05:36:59.501Z,433.13
2019-05-07T05:37:59.396Z,517.50
2019-05-07T05:38:59.294Z,534.38
2019-05-07T05:40:06.362Z,376.88
2019-05-07T05:40:59.087Z,444.38
2019-05-07T05:41:58.985Z,472.50
2019-05-07T05:42:58.885Z,618.75
2019-05-07T05:43:58.780Z,511.88
2019-05-07T05:44:58.677Z,427.50
2019-05-07T05:45:58.573Z,545.63
2019-05-07T05:46:58.474Z,815.63
2019-05-07T05:48:04.539Z,585.00
2019-05-07T05:48:58.267Z,714.38
2019-05-07T05:49:58.192Z,894.38
2019-05-07T05:50:58.119Z,472.50
2019-05-07T05:51:57.960Z,708.75
2019-05-07T05:52:57.862Z,815.63
2019-05-07T05:53:57.759Z,855.00
2019-05-07T05:54:57.656Z,725.63
2019-05-07T05:55:57.554Z,883.13
2019-05-07T05:56:57.455Z,478.13
2019-05-07T05:57:57.353Z,810.00
2019-05-07T05:58:57.254Z,1023.75
2019-05-07T05:59:57.155Z,950.63
2019-05-07T06:00:57.052Z,838.13
2019-05-07T06:01:56.953Z,405.00
2019-05-07T06:02:56.849Z,365.63
2019-05-07T06:03:56.751Z,472.50
2019-05-07T06:04:56.654Z,292.50
2019-05-07T06:05:56.553Z,376.88
2019-05-07T06:07:07.847Z,736.88
2019-05-07T06:07:56.354Z,438.75
2019-05-07T06:08:56.251Z,264.38
2019-05-07T06:09:56.184Z,196.88
2019-05-07T06:10:56.104Z,185.63
2019-05-07T06:11:55.952Z,264.38
2019-05-07T06:12:55.855Z,961.88
2019-05-07T06:13:55.751Z,888.75
2019-05-07T06:14:55.652Z,995.63
2019-05-07T06:15:55.556Z,1001.25
2019-05-07T06:16:55.451Z,1035.00
2019-05-07T06:17:55.349Z,1108.13
2019-05-07T06:18:55.255Z,995.63
2019-05-07T06:19:55.151Z,956.25
2019-05-07T06:20:55.054Z,995.63
2019-05-07T06:21:54.952Z,1068.75
2019-05-07T06:22:54.853Z,1158.75
2019-05-07T06:23:54.755Z,843.75
2019-05-07T06:24:56.428Z,461.25
2019-05-07T06:25:54.556Z,1198.13
2019-05-07T06:26:54.457Z,483.75
2019-05-07T06:27:54.359Z,1141.88
2019-05-07T06:28:54.262Z,1141.88
2019-05-07T06:29:54.162Z,1181.25
2019-05-07T06:30:54.142Z,1198.13
2019-05-07T06:31:53.969Z,1248.75
2019-05-07T06:32:53.873Z,950.63
2019-05-07T06:33:53.771Z,343.13
2019-05-07T06:34:53.675Z,360.00
2019-05-07T06:35:53.580Z,1231.88
2019-05-07T06:36:53.481Z,551.25
2019-05-07T06:37:53.383Z,1316.25
2019-05-07T06:38:53.291Z,1400.63
2019-05-07T06:39:53.191Z,1608.75
2019-05-07T06:40:53.091Z,511.88
2019-05-07T06:41:52.995Z,2176.88
2019-05-07T06:42:52.905Z,393.75
2019-05-07T06:43:52.803Z,1743.75
2019-05-07T06:44:52.706Z,405.00
2019-05-07T06:45:52.609Z,2019.38
2019-05-07T06:46:52.675Z,2430.00
2019-05-07T06:47:52.416Z,2373.75
2019-05-07T06:48:52.707Z,2278.13
2019-05-07T06:49:52.381Z,1040.63
2019-05-07T06:50:52.310Z,703.13
2019-05-07T06:51:52.837Z,2396.25
2019-05-07T06:52:52.044Z,1676.25
2019-05-07T06:53:51.969Z,511.88
2019-05-07T06:54:52.340Z,652.50
2019-05-07T06:55:52.128Z,787.50
2019-05-07T06:56:52.354Z,736.88
2019-05-07T06:57:53.054Z,331.88
2019-05-07T06:58:52.666Z,298.13
2019-05-07T06:59:53.028Z,343.13
2019-05-07T07:00:52.755Z,337.50
2019-05-07T07:01:52.923Z,365.63
2019-05-07T07:02:52.452Z,354.38
2019-05-07T07:03:52.584Z,438.75
2019-05-07T07:04:51.874Z,433.13
2019-05-07T07:05:51.862Z,427.50
2019-05-07T07:06:52.436Z,1130.63
2019-05-07T07:07:52.551Z,405.00
2019-05-07T07:08:52.542Z,399.38
2019-05-07T07:09:51.910Z,2733.75
2019-05-07T07:10:51.978Z,2756.25
2019-05-07T07:11:50.183Z,2846.25
2019-05-07T07:12:50.034Z,2913.75
2019-05-07T07:13:51.889Z,2930.63
2019-05-07T07:14:51.691Z,2846.25
2019-05-07T07:15:49.695Z,1490.63
2019-05-07T07:16:49.596Z,1035.00
2019-05-07T07:17:49.497Z,2863.13
2019-05-07T07:18:52.383Z,2846.25
2019-05-07T07:19:49.303Z,444.38
2019-05-07T07:20:49.206Z,483.75
2019-05-07T07:21:49.109Z,2880.00
2019-05-07T07:22:49.014Z,2891.25
2019-05-07T07:23:48.914Z,2992.50
2019-05-07T07:24:48.817Z,2958.75
2019-05-07T07:25:48.721Z,3026.25
2019-05-07T07:26:48.625Z,3172.50
2019-05-07T07:27:48.540Z,3234.38
2019-05-07T07:28:48.437Z,3240.00
2019-05-07T07:29:48.334Z,3172.50
2019-05-07T07:30:48.238Z,2829.38
2019-05-07T07:31:48.145Z,950.63
2019-05-07T07:32:48.063Z,343.13
2019-05-07T07:33:48.001Z,382.50
2019-05-07T07:34:47.859Z,382.50
2019-05-07T07:35:47.847Z,315.00
2019-05-07T07:37:01.715Z,298.13
2019-05-07T07:37:47.575Z,607.50
2019-05-07T07:38:47.477Z,2986.88
2019-05-07T07:39:47.378Z,2958.75
2019-05-07T07:40:47.285Z,2255.63
2019-05-07T07:41:47.186Z,1316.25
2019-05-07T07:42:47.088Z,714.38
2019-05-07T07:43:46.993Z,511.88
2019-05-07T07:44:46.898Z,416.25
2019-05-07T07:45:46.798Z,388.13
2019-05-07T07:46:46.703Z,371.25
2019-05-07T07:47:46.606Z,360.00
2019-05-07T07:48:46.508Z,354.38
2019-05-07T07:49:46.410Z,376.88
2019-05-07T07:50:46.313Z,388.13
2019-05-07T07:51:46.214Z,438.75
2019-05-07T07:52:46.116Z,427.50
2019-05-07T07:53:46.049Z,416.25
2019-05-07T07:54:45.978Z,371.25
2019-05-07T07:55:45.823Z,371.25
2019-05-07T07:56:52.302Z,371.25
2019-05-07T07:57:45.622Z,365.63
2019-05-07T07:58:45.525Z,365.63
2019-05-07T07:59:45.428Z,371.25
2019-05-07T08:00:45.337Z,371.25
2019-05-07T08:01:45.227Z,337.50
2019-05-07T08:02:45.129Z,331.88
2019-05-07T08:03:45.030Z,337.50
2019-05-07T08:04:44.932Z,337.50
2019-05-07T08:05:44.834Z,348.75
2019-05-07T08:06:44.731Z,410.63
2019-05-07T08:07:44.632Z,450.00
2019-05-07T08:08:44.531Z,540.00
2019-05-07T08:09:44.431Z,624.38
2019-05-07T08:10:44.333Z,691.88
2019-05-07T08:11:44.234Z,680.63
2019-05-07T08:12:44.133Z,720.00
2019-05-07T08:13:44.033Z,680.63
2019-05-07T08:14:43.955Z,596.25
2019-05-07T08:15:43.833Z,534.38
2019-05-07T08:16:43.737Z,517.50
2019-05-07T08:17:43.631Z,495.00
2019-05-07T08:18:43.784Z,376.88
2019-05-07T08:19:43.432Z,360.00
2019-05-07T08:20:43.333Z,393.75
2019-05-07T08:21:43.233Z,427.50
2019-05-07T08:22:43.133Z,500.63
2019-05-07T08:23:43.033Z,506.25
2019-05-07T08:24:42.930Z,495.00
2019-05-07T08:25:42.835Z,523.13
2019-05-07T08:26:42.969Z,556.88
2019-05-07T08:27:42.632Z,630.00
2019-05-07T08:28:42.531Z,658.13
2019-05-07T08:29:42.973Z,607.50
2019-05-07T08:30:42.330Z,646.88
2019-05-07T08:31:42.545Z,821.25
2019-05-07T08:32:42.558Z,821.25
2019-05-07T08:33:42.603Z,883.13
2019-05-07T08:34:42.817Z,753.75
2019-05-07T08:35:41.978Z,433.13
2019-05-07T08:36:42.079Z,376.88
2019-05-07T08:37:42.710Z,388.13
2019-05-07T08:38:42.610Z,421.88
2019-05-07T08:39:42.874Z,495.00
2019-05-07T08:40:41.845Z,573.75
2019-05-07T08:41:42.295Z,697.50
2019-05-07T08:42:41.913Z,708.75
2019-05-07T08:43:42.736Z,4055.63
2019-05-07T08:44:42.860Z,4230.00
2019-05-07T08:45:43.032Z,4246.88
2019-05-07T08:46:42.201Z,4168.13
2019-05-07T08:47:42.414Z,4303.13
2019-05-07T08:48:42.377Z,1271.25
2019-05-07T08:49:43.096Z,1276.88
2019-05-07T08:50:41.889Z,500.63
2019-05-07T08:51:40.223Z,410.63
2019-05-07T08:52:41.847Z,365.63
2019-05-07T08:53:42.197Z,371.25
2019-05-07T08:54:39.972Z,399.38
2019-05-07T08:55:39.874Z,433.13
2019-05-07T08:56:39.722Z,444.38
2019-05-07T08:57:39.623Z,455.63
2019-05-07T08:58:39.528Z,444.38
2019-05-07T08:59:39.426Z,410.63
2019-05-07T09:00:39.326Z,4016.25
2019-05-07T09:01:39.225Z,4072.50
2019-05-07T09:02:39.129Z,4123.13
2019-05-07T09:03:39.029Z,4095.00
2019-05-07T09:04:38.927Z,4038.75
2019-05-07T09:05:38.826Z,4050.00
2019-05-07T09:06:38.728Z,4072.50
2019-05-07T09:07:38.630Z,4123.13
2019-05-07T09:08:38.532Z,4190.63
2019-05-07T09:09:38.433Z,4190.63
2019-05-07T09:10:38.335Z,4100.63
2019-05-07T09:11:38.238Z,4156.88
2019-05-07T09:12:38.143Z,4291.88
2019-05-07T09:13:38.049Z,4393.13
2019-05-07T09:14:37.951Z,4438.13
2019-05-07T09:15:37.933Z,4736.25
2019-05-07T09:16:37.763Z,4995.00
2019-05-07T09:17:37.668Z,4725.00
2019-05-07T09:18:37.574Z,4708.13
2019-05-07T09:19:50.019Z,4426.88
2019-05-07T09:20:37.387Z,1248.75
2019-05-07T09:21:37.295Z,495.00
2019-05-07T09:22:37.202Z,416.25
2019-05-07T09:23:37.112Z,399.38
2019-05-07T09:24:37.021Z,416.25
2019-05-07T09:25:36.935Z,1901.25
2019-05-07T09:26:36.835Z,1327.50
2019-05-07T09:27:36.742Z,4280.63
2019-05-07T09:28:36.650Z,4342.50
2019-05-07T09:29:36.558Z,4415.63
2019-05-07T09:30:36.548Z,4567.50
2019-05-07T09:31:36.454Z,4556.25
2019-05-07T09:32:36.364Z,4674.38
2019-05-07T09:33:36.193Z,4741.88
2019-05-07T09:34:36.092Z,1980.00
2019-05-07T09:35:36.004Z,4629.38
2019-05-07T09:36:35.922Z,798.75
2019-05-07T09:37:35.858Z,444.38
2019-05-07T09:38:35.727Z,371.25
2019-05-07T09:39:35.636Z,393.75
2019-05-07T09:40:35.544Z,405.00
2019-05-07T09:41:35.533Z,489.38
2019-05-07T09:42:35.452Z,1783.13
2019-05-07T09:43:35.266Z,4696.88
2019-05-07T09:44:35.173Z,658.13
2019-05-07T09:45:35.081Z,843.75
2019-05-07T09:46:34.986Z,4106.25
2019-05-07T09:47:34.899Z,4089.38
2019-05-07T09:48:34.802Z,4421.25
2019-05-07T09:49:34.793Z,691.88
2019-05-07T09:50:34.699Z,450.00
2019-05-07T09:51:34.606Z,388.13
2019-05-07T09:52:34.514Z,365.63
2019-05-07T09:53:34.422Z,360.00
2019-05-07T09:54:34.241Z,388.13
2019-05-07T09:55:34.145Z,376.88
2019-05-07T09:56:34.054Z,388.13
2019-05-07T09:57:34.736Z,607.50
2019-05-07T09:58:38.467Z,4635.00
2019-05-07T09:59:33.825Z,4618.13
2019-05-07T10:00:33.676Z,4471.88
2019-05-07T10:01:33.583Z,4528.13
2019-05-07T10:02:33.581Z,4584.38
2019-05-07T10:03:33.477Z,4612.50
2019-05-07T10:04:33.386Z,4618.13
2019-05-07T10:05:33.289Z,4578.75
2019-05-07T10:06:33.196Z,4606.88
2019-05-07T10:07:33.102Z,4629.38
2019-05-07T10:08:33.024Z,4680.00
2019-05-07T10:09:32.989Z,4803.75
2019-05-07T10:10:33.029Z,4933.13
2019-05-07T10:11:32.962Z,990.00
2019-05-07T10:12:32.931Z,4815.00
2019-05-07T10:13:33.035Z,4978.13
2019-05-07T10:14:33.126Z,4966.88
2019-05-07T10:15:33.115Z,4876.88
2019-05-07T10:16:32.277Z,4938.75
2019-05-07T10:17:32.748Z,5056.88
2019-05-07T10:18:32.174Z,5011.88
2019-05-07T10:19:32.480Z,5141.25
2019-05-07T10:20:32.770Z,1085.63
2019-05-07T10:21:31.903Z,967.50
2019-05-07T10:22:32.123Z,1057.50
2019-05-07T10:23:31.647Z,1951.88
2019-05-07T10:24:31.558Z,5394.38
2019-05-07T10:25:32.759Z,3121.88
2019-05-07T10:26:32.141Z,556.88
2019-05-07T10:27:32.454Z,534.38
2019-05-07T10:28:32.088Z,573.75
2019-05-07T10:29:32.252Z,675.00
2019-05-07T10:30:32.119Z,832.50
2019-05-07T10:31:32.044Z,579.38
2019-05-07T10:32:32.243Z,528.75
2019-05-07T10:33:31.921Z,534.38
2019-05-07T10:34:30.572Z,556.88
2019-05-07T10:35:33.166Z,545.63
2019-05-07T10:36:32.049Z,573.75
2019-05-07T10:37:31.927Z,534.38
2019-05-07T10:38:30.204Z,461.25
2019-05-07T10:39:30.117Z,405.00
2019-05-07T10:40:30.018Z,421.88
2019-05-07T10:41:31.758Z,466.88
2019-05-07T10:42:31.861Z,5231.25
2019-05-07T10:43:29.784Z,4370.63
2019-05-07T10:44:32.010Z,905.63
2019-05-07T10:45:29.634Z,810.00
2019-05-07T10:46:29.535Z,573.75
2019-05-07T10:47:29.445Z,534.38
2019-05-07T10:48:29.268Z,562.50
2019-05-07T10:49:29.179Z,641.25
2019-05-07T10:50:36.470Z,3645.00
2019-05-07T10:51:28.981Z,596.25
2019-05-07T10:52:28.884Z,500.63
2019-05-07T10:53:28.789Z,427.50
2019-05-07T10:54:28.692Z,382.50
2019-05-07T10:55:28.595Z,354.38
2019-05-07T10:56:28.500Z,365.63
2019-05-07T10:57:28.405Z,388.13
2019-05-07T10:58:28.309Z,393.75
2019-05-07T10:59:28.218Z,450.00
2019-05-07T11:00:28.118Z,500.63
2019-05-07T11:01:28.020Z,568.13
2019-05-07T11:02:27.924Z,2930.63
2019-05-07T11:03:27.828Z,2435.63
2019-05-07T11:04:39.328Z,1873.13
2019-05-07T11:05:27.638Z,1760.63
2019-05-07T11:06:27.538Z,1726.88
2019-05-07T11:07:27.443Z,1254.38
2019-05-07T11:08:27.352Z,495.00
2019-05-07T11:09:27.256Z,635.63
2019-05-07T11:10:27.156Z,703.13
2019-05-07T11:11:27.062Z,607.50
2019-05-07T11:12:26.968Z,528.75
2019-05-07T11:13:26.873Z,444.38
2019-05-07T11:14:26.776Z,410.63
2019-05-07T11:15:26.681Z,382.50
2019-05-07T11:16:26.586Z,348.75
2019-05-07T11:17:26.491Z,365.63
2019-05-07T11:18:26.395Z,1001.25
2019-05-07T11:19:26.301Z,596.25
2019-05-07T11:20:26.206Z,607.50
2019-05-07T11:21:26.109Z,607.50
2019-05-07T11:22:26.014Z,545.63
2019-05-07T11:23:25.916Z,483.75
2019-05-07T11:24:25.822Z,472.50
2019-05-07T11:25:25.787Z,466.88
2019-05-07T11:26:25.669Z,444.38
2019-05-07T11:27:25.534Z,450.00
2019-05-07T11:28:25.437Z,472.50
2019-05-07T11:29:25.345Z,500.63
2019-05-07T11:30:25.248Z,624.38
2019-05-07T11:31:25.147Z,680.63
2019-05-07T11:32:25.062Z,680.63
2019-05-07T11:33:24.954Z,675.00
2019-05-07T11:34:24.861Z,635.63
2019-05-07T11:35:24.761Z,635.63
2019-05-07T11:36:24.662Z,658.13
2019-05-07T11:37:24.567Z,652.50
2019-05-07T11:38:25.047Z,607.50
2019-05-07T11:39:24.371Z,568.13
2019-05-07T11:40:24.276Z,551.25
2019-05-07T11:41:24.176Z,568.13
2019-05-07T11:42:24.079Z,568.13
2019-05-07T11:43:23.982Z,551.25
2019-05-07T11:44:23.885Z,556.88
2019-05-07T11:45:23.786Z,596.25
2019-05-07T11:46:23.742Z,691.88
2019-05-07T11:47:23.600Z,697.50
2019-05-07T11:48:23.494Z,731.25
2019-05-07T11:49:23.394Z,618.75
2019-05-07T11:50:23.297Z,601.88
2019-05-07T11:51:23.222Z,607.50
2019-05-07T11:52:23.101Z,680.63
2019-05-07T11:53:23.022Z,652.50
2019-05-07T11:54:22.909Z,613.13
2019-05-07T11:55:22.809Z,652.50
2019-05-07T11:56:22.712Z,675.00
2019-05-07T11:57:22.614Z,630.00
2019-05-07T11:58:22.516Z,618.75
2019-05-07T11:59:22.417Z,2362.50
2019-05-07T12:00:22.321Z,5017.50
2019-05-07T12:01:22.453Z,5248.13
2019-05-07T12:02:22.637Z,5191.88
2019-05-07T12:03:22.161Z,4696.88
2019-05-07T12:04:21.932Z,1951.88
2019-05-07T12:05:22.707Z,613.13
2019-05-07T12:06:21.773Z,658.13
2019-05-07T12:07:22.368Z,596.25
2019-05-07T12:08:22.443Z,585.00
2019-05-07T12:09:21.771Z,534.38
2019-05-07T12:10:22.266Z,523.13
2019-05-07T12:11:21.883Z,511.88
2019-05-07T12:12:22.152Z,506.25
2019-05-07T12:13:21.795Z,506.25
2019-05-07T12:14:28.877Z,528.75
2019-05-07T12:15:21.725Z,585.00
2019-05-07T12:16:22.328Z,725.63
2019-05-07T12:17:22.268Z,731.25
2019-05-07T12:18:22.484Z,618.75
2019-05-07T12:19:22.544Z,585.00
2019-05-07T12:20:21.836Z,551.25
2019-05-07T12:21:24.049Z,523.13
2019-05-07T12:22:20.221Z,500.63
2019-05-07T12:23:20.127Z,478.13
2019-05-07T12:24:22.210Z,461.25
2019-05-07T12:25:19.939Z,393.75
2019-05-07T12:26:22.147Z,410.63
2019-05-07T12:27:19.835Z,444.38
2019-05-07T12:28:19.698Z,478.13
2019-05-07T12:29:19.630Z,545.63
2019-05-07T12:30:19.468Z,691.88
2019-05-07T12:31:19.370Z,849.38
2019-05-07T12:32:19.288Z,1136.25
2019-05-07T12:33:19.179Z,1372.50
2019-05-07T12:34:19.082Z,1389.38
2019-05-07T12:35:18.989Z,579.38
2019-05-07T12:36:18.890Z,787.50
2019-05-07T12:37:18.796Z,562.50
2019-05-07T12:38:18.699Z,551.25